x

Buoy F01 - West Penobscot Bay (44033) Wave Buoy

10:04pm - Sat 24th Jan 2015 All times are EST. -5 hours from GMT.

  • Sig Wave height 2.6ft
  • Peak Period 4s
  • Wind
    22mph, 27mph gusts
  • Sea Temp 39°f
  • Air Temp 31°f
  • Sea Pressure 983.8mb
  • Buoy F01 - West Penobscot Bay
  • Buoy F01 - West Penobscot Bay

More Historic Weather Station data

Upgrade to MSW Pro to gain access to the past 30 days of data for over 8000 Wavebouys and Weather Stations around the globe.

Join Pro

Comparision Forecast

View Surf forecast
   
Sat 01/24 10:04pm 2.5ft 4s 22 27 mph 983.8mb 39f 31f
9:04pm 3.5ft 4s 27 34 mph 982.6mb 39f 31f
8:04pm 3.5ft 4s 27 34 mph 983.4mb 39f 31f
7:04pm 3.5ft 4s 27 36 mph 984.4mb 39f 31f
6:04pm 3ft 4s 31 43 mph 984.8mb 39f 31f
5:04pm 2.5ft 3s 34 38 mph 988mb 39f 31f
4:04pm 2.5ft 6s 20 22 mph 991.3mb 38f 31f
3:04pm 2.5ft 6s 22 31 mph 992.2mb 39f 31f
2:04pm 2ft 6s 22 29 mph 994.9mb 38f 31f
1:04pm 2ft 6s 11
mph
997mb 38f 31f
12:04pm 2.5ft 6s 7 9 mph 999.7mb 38f 32f
11:04am 3.5ft 6s 7 9 mph 1002mb 38f 32f
10:04am 2.5ft 6s 7 9 mph 1003.7mb 38f 32f
9:04am 2ft 6s 4 7 mph 1004.8mb 38f 32f
8:04am 2.5ft 6s 9
mph
1005.9mb 38f 33f
7:04am 2.5ft 6s 13 16 mph 1006.7mb 38f 33f
6:04am 2.5ft 6s 13 16 mph 1006.3mb 38f 32f
5:04am 2ft 5s 13 18 mph 1006.7mb 38f 32f
4:04am 2.5ft 6s 13 16 mph 1007.2mb 38f 32f
3:04am 2.5ft 5s 13 16 mph 1007.9mb 38f 32f
2:04am 2.5ft 6s 16 20 mph 1008.5mb 38f 33f
1:04am 2ft 5s 18 20 mph 1008.8mb 38f 34f
12:04am 2.5ft 5s 18 22 mph 1009.9mb 38f 34f
Fri 01/23 11:04pm 2.5ft 5s 20 25 mph 1010.7mb 38f 35f
10:04pm 2.5ft 4s 22 34 mph 1011.4mb 38f 35f
9:04pm 1.3ft 4s 16 20 mph 1012.7mb 38f 34f
8:04pm 1.3ft 3s 16 18 mph 1013.8mb 38f 34f
7:04pm 1.3ft 4s 11 13 mph 1014.6mb 38f 32f
6:04pm 1.3ft 3s 13
mph
1014.9mb 38f 31f
5:04pm 1.3ft 4s 13 16 mph 1015.3mb 38f 31f
4:04pm 1ft 3s 13 16 mph 1015.4mb 38f 31f
3:04pm 1.3ft 4s 13 18 mph 1016.1mb 38f 31f
2:04pm 1.3ft 3s 13 18 mph 1016.6mb 39f 31f
1:04pm 1ft 2s 11 13 mph 1017.5mb 39f 31f
12:04pm 1ft 3s 16 22 mph 1018.8mb 39f 30f
11:04am 1.3ft 11s 13 18 mph 1020.3mb 39f 27f
10:04am 1ft 11s 11 16 mph 1021.1mb 38f 25f
9:04am 1ft 8s 11 16 mph 1021.6mb 38f 24f
8:04am 1ft 8s 9 11 mph 1021.7mb 38f 24f
7:04am 1.3ft 8s 11 20 mph 1021.6mb 38f 23f
6:04am 1.6ft 11s 9 13 mph 1022mb 38f 23f
5:04am 1.6ft 11s 20 22 mph 1021.9mb 38f 23f
4:04am 1.3ft 3s 22 27 mph 1021.4mb 39f 25f
3:04am 1.6ft 2s 20 27 mph 1020.7mb 38f 26f
2:04am 1.6ft 3s 20 27 mph 1020.4mb 38f 26f
1:04am 0.7ft  -  18 22 mph 1019.9mb 39f 28f
12:04am 0.7ft  -  13 18 mph 1019.6mb 39f 27f
Thu 01/22 11:04pm 0.7ft  -  13 16 mph 1019.9mb 39f 29f
10:04pm 1ft 8s 9 11 mph 1020mb 39f 29f
9:04pm 1ft 8s 9 11 mph 1020.3mb 39f 29f
8:04pm 1ft 8s 7 9 mph 1020.7mb 39f 30f
7:04pm 1.3ft 8s 7 9 mph 1021.2mb 39f 30f
6:04pm 1ft 8s 7 9 mph 1021.4mb 39f 30f
5:04pm 1.3ft 8s 7 11 mph 1021mb 39f 30f
4:04pm 1.3ft 11s 9 11 mph 1020.8mb 40f 29f
3:04pm 1ft 6s 9 13 mph 1020.5mb 40f 29f
1:04pm 1.6ft 2s 13 16 mph 1020.4mb 40f 27f
12:04pm 2ft 8s 13 16 mph 1021.1mb 40f 26f
11:04am 2ft 8s 13 16 mph 1022mb 40f 25f
10:04am 1.6ft 8s 16 20 mph 1022.6mb 40f 24f
9:04am 1.3ft 3s 16 25 mph 1022.4mb 40f 25f
8:04am 1.6ft 3s 16 20 mph 1021.9mb 40f 26f
7:04am 1.6ft 3s 16 20 mph 1021.5mb 39f 28f
6:04am 1.6ft 3s 16 18 mph 1022.1mb 39f 28f
5:04am 1.6ft 3s 18 20 mph 1022.4mb 39f 28f
4:04am 1.3ft 3s 16 20 mph 1022.3mb 39f 28f
3:04am 1ft 2s 16 18 mph 1022.6mb 39f 28f
2:04am 0.7ft  -  13 18 mph 1023.1mb 39f 29f
1:04am 1.3ft 11s 11 16 mph 1022.7mb 40f 29f
12:04am 1.3ft 11s 11 13 mph 1022.7mb 40f 29f
Wed 01/21 11:04pm 1ft 6s 9 11 mph 1023.5mb 40f 29f
10:04pm 1ft 8s 9 11 mph 1023.4mb 39f 29f
8:04pm 1ft 8s 9 13 mph 1022.5mb 39f 28f
7:04pm 1ft 8s 4 7 mph 1022.9mb 39f 28f
6:04pm 1ft 8s 2 4 mph 1022.9mb 39f 27f
5:04pm 1ft 11s 2 4 mph 1022.5mb 39f 26f
4:04pm 1ft 11s 4 7 mph 1021.8mb 39f 26f
3:04pm 1ft 11s 2 7 mph 1021.8mb 39f 25f
10:04am 1.3ft 8s 7 9 mph 1020.2mb 40f 19f
9:04am 1.3ft 8s 7 11 mph 1019.9mb 40f 18f
8:04am 1ft 8s 9 13 mph 1019.3mb 40f 17f
7:04am 1ft 8s 7 11 mph 1019.1mb 40f 16f
6:04am 1ft 8s 9 13 mph 1018.1mb 40f 16f
5:04am 1ft 8s 9 11 mph 1017.3mb 40f 16f